createdAt,value
2022-10-21T00:01:24.890Z,9.83
2022-10-21T00:03:51.331Z,9.84
2022-10-21T00:06:17.707Z,9.93
2022-10-21T00:08:44.138Z,10.01
2022-10-21T00:11:10.595Z,10.06
2022-10-21T00:13:38.608Z,10.07
2022-10-21T00:16:05.252Z,10.03
2022-10-21T00:18:32.045Z,9.99
2022-10-21T00:20:58.618Z,9.99
2022-10-21T00:23:25.146Z,9.94
2022-10-21T00:25:58.501Z,9.91
2022-10-21T00:28:25.123Z,9.91
2022-10-21T00:30:51.545Z,9.87
2022-10-21T00:33:17.991Z,9.85
2022-10-21T00:35:50.642Z,9.78
2022-10-21T00:38:17.018Z,9.73
2022-10-21T00:40:43.424Z,9.69
2022-10-21T00:43:11.216Z,9.64
2022-10-21T00:45:37.623Z,9.60
2022-10-21T00:48:19.052Z,9.58
2022-10-21T00:50:55.392Z,9.55
2022-10-21T00:53:22.192Z,9.57
2022-10-21T00:55:52.410Z,9.53
2022-10-21T00:58:19.387Z,9.51
2022-10-21T01:00:45.832Z,9.48
2022-10-21T01:03:12.327Z,9.46
2022-10-21T01:05:38.782Z,9.43
2022-10-21T01:08:05.249Z,9.40
2022-10-21T01:10:31.652Z,9.43
2022-10-21T01:13:10.159Z,9.43
2022-10-21T01:15:37.123Z,9.43
2022-10-21T01:18:16.595Z,9.39
2022-10-21T01:21:04.008Z,9.43
2022-10-21T01:24:07.878Z,9.43
2022-10-21T01:27:11.285Z,9.39
2022-10-21T01:29:49.691Z,9.39
2022-10-21T01:32:34.762Z,9.44
2022-10-21T01:35:07.029Z,9.48
2022-10-21T01:37:51.791Z,9.52
2022-10-21T01:40:26.840Z,9.56
2022-10-21T01:43:19.487Z,9.67
2022-10-21T01:45:48.494Z,9.75
2022-10-21T01:48:20.989Z,9.85
2022-10-21T01:50:51.022Z,9.83
2022-10-21T01:53:17.397Z,9.84
2022-10-21T01:55:43.791Z,9.83
2022-10-21T01:58:13.754Z,9.86
2022-10-21T02:00:40.186Z,9.90
2022-10-21T02:03:09.199Z,9.87
2022-10-21T02:05:35.839Z,9.86
2022-10-21T02:08:02.303Z,9.84
2022-10-21T02:10:31.987Z,9.84
2022-10-21T02:12:58.887Z,9.76
2022-10-21T02:15:25.348Z,9.75
2022-10-21T02:17:57.799Z,9.75
2022-10-21T02:20:24.712Z,9.73
2022-10-21T02:22:51.216Z,9.68
2022-10-21T02:25:20.408Z,9.69
2022-10-21T02:27:47.071Z,9.71
2022-10-21T02:30:13.495Z,9.73
2022-10-21T02:32:56.940Z,9.71
2022-10-21T02:35:40.962Z,9.74
2022-10-21T02:38:15.988Z,9.81
2022-10-21T02:40:46.980Z,9.83
2022-10-21T02:43:22.664Z,9.86
2022-10-21T02:45:49.137Z,9.88
2022-10-21T02:48:15.537Z,9.92
2022-10-21T02:50:41.939Z,9.93
2022-10-21T02:53:08.389Z,9.95
2022-10-21T02:55:34.771Z,9.96
2022-10-21T02:58:01.182Z,9.96
2022-10-21T03:00:30.791Z,9.97
2022-10-21T03:02:59.258Z,9.94
2022-10-21T03:05:25.676Z,9.83
2022-10-21T03:07:52.100Z,9.87
2022-10-21T03:10:18.496Z,9.93
2022-10-21T03:12:44.871Z,9.94
2022-10-21T03:15:11.251Z,9.96
2022-10-21T03:17:37.922Z,9.95
2022-10-21T03:20:04.943Z,9.93
2022-10-21T03:22:31.402Z,9.89
2022-10-21T03:24:57.784Z,9.88
2022-10-21T03:27:24.226Z,9.87
2022-10-21T03:29:50.626Z,9.92
2022-10-21T03:32:17.031Z,9.93
2022-10-21T03:34:43.425Z,9.92
2022-10-21T03:37:09.859Z,9.97
2022-10-21T03:39:36.274Z,10.04
2022-10-21T03:42:02.647Z,10.10
2022-10-21T03:44:29.020Z,10.13
2022-10-21T03:46:55.418Z,10.15
2022-10-21T03:49:22.915Z,10.15
2022-10-21T03:51:49.416Z,10.19
2022-10-21T03:54:16.147Z,10.19
2022-10-21T03:56:42.546Z,10.20
2022-10-21T03:59:08.996Z,10.20
2022-10-21T04:01:35.653Z,10.19
2022-10-21T04:04:02.045Z,10.24
2022-10-21T04:06:28.482Z,10.29
2022-10-21T04:08:54.922Z,10.31
2022-10-21T04:11:21.346Z,10.32
2022-10-21T04:13:47.712Z,10.36
2022-10-21T04:16:15.346Z,10.39
2022-10-21T04:18:41.758Z,10.39
2022-10-21T04:21:08.817Z,10.47
2022-10-21T04:23:35.580Z,10.53
2022-10-21T04:26:02.024Z,10.59
2022-10-21T04:28:28.404Z,10.63
2022-10-21T04:30:54.818Z,10.64
2022-10-21T04:33:21.195Z,10.66
2022-10-21T04:35:47.584Z,10.69
2022-10-21T04:38:14.003Z,10.69
2022-10-21T04:40:40.376Z,10.73
2022-10-21T04:43:06.754Z,10.72
2022-10-21T04:45:33.295Z,10.72
2022-10-21T04:47:59.669Z,10.76
2022-10-21T04:50:26.101Z,10.73
2022-10-21T04:52:52.466Z,10.73
2022-10-21T04:55:18.854Z,10.79
2022-10-21T04:57:45.278Z,10.80
2022-10-21T05:00:12.244Z,10.83
2022-10-21T05:02:38.912Z,10.83
2022-10-21T05:05:06.055Z,10.81
2022-10-21T05:07:32.419Z,10.83
2022-10-21T05:09:58.795Z,10.85
2022-10-21T05:12:25.224Z,10.87
2022-10-21T05:14:51.664Z,10.86
2022-10-21T05:17:18.030Z,10.82
2022-10-21T05:19:44.437Z,10.80
2022-10-21T05:22:11.714Z,10.80
2022-10-21T05:24:38.084Z,10.79
2022-10-21T05:27:04.470Z,10.79
2022-10-21T05:29:30.871Z,10.77
2022-10-21T05:31:57.295Z,10.75
2022-10-21T05:34:23.669Z,10.73
2022-10-21T05:36:50.036Z,10.68
2022-10-21T05:39:16.425Z,10.69
2022-10-21T05:41:45.473Z,10.68
2022-10-21T05:44:14.295Z,10.68
2022-10-21T05:46:40.713Z,10.70
2022-10-21T05:49:07.522Z,10.69
2022-10-21T05:51:34.090Z,10.68
2022-10-21T05:54:02.809Z,10.64
2022-10-21T05:56:29.206Z,10.62
2022-10-21T05:58:55.587Z,10.62
2022-10-21T06:01:22.050Z,10.70
2022-10-21T06:03:48.506Z,10.66
2022-10-21T06:06:14.888Z,10.69
2022-10-21T06:08:41.323Z,10.77
2022-10-21T06:11:11.690Z,10.74
2022-10-21T06:13:38.299Z,10.84
2022-10-21T06:18:32.625Z,10.89
2022-10-21T06:20:59.022Z,10.87
2022-10-21T06:23:25.486Z,10.87
2022-10-21T06:26:18.419Z,10.92
2022-10-21T06:28:45.252Z,10.96
2022-10-21T06:31:14.138Z,10.99
2022-10-21T06:33:40.623Z,11.03
2022-10-21T06:36:07.344Z,11.04
2022-10-21T06:38:34.135Z,11.07
2022-10-21T06:41:01.730Z,11.07
2022-10-21T06:43:28.249Z,11.10
2022-10-21T06:46:02.102Z,11.17
2022-10-21T06:48:28.494Z,11.19
2022-10-21T06:51:02.727Z,11.27
2022-10-21T06:53:29.226Z,11.32
2022-10-21T06:56:16.464Z,11.41
2022-10-21T06:58:43.224Z,11.45
2022-10-21T07:01:21.331Z,11.55
2022-10-21T07:03:56.893Z,11.60
2022-10-21T07:06:23.420Z,11.61
2022-10-21T07:08:57.951Z,11.65
2022-10-21T07:11:24.926Z,11.73
2022-10-21T07:13:51.284Z,11.80
2022-10-21T07:16:25.964Z,11.86
2022-10-21T07:18:53.047Z,11.97
2022-10-21T07:21:21.017Z,11.95
2022-10-21T07:23:48.252Z,12.00
2022-10-21T07:26:14.822Z,12.03
2022-10-21T07:28:42.186Z,12.06
2022-10-21T07:31:08.616Z,12.08
2022-10-21T07:33:35.103Z,12.07
2022-10-21T07:36:05.612Z,12.10
2022-10-21T07:38:32.071Z,12.13
2022-10-21T07:40:59.200Z,12.20
2022-10-21T07:43:25.656Z,12.25
2022-10-21T07:45:52.056Z,12.25
2022-10-21T07:48:19.111Z,12.30
2022-10-21T07:50:45.711Z,12.37
2022-10-21T07:53:13.044Z,12.45
2022-10-21T07:55:39.817Z,12.50
2022-10-21T07:58:06.213Z,12.58
2022-10-21T08:00:32.587Z,12.69
2022-10-21T08:02:59.273Z,12.89
2022-10-21T08:05:25.750Z,13.00
2022-10-21T08:07:52.220Z,13.08
2022-10-21T08:10:18.665Z,13.22
2022-10-21T08:12:45.093Z,13.29
2022-10-21T08:15:11.550Z,13.42
2022-10-21T08:17:37.926Z,13.53
2022-10-21T08:20:04.751Z,13.67
2022-10-21T08:22:31.145Z,13.72
2022-10-21T08:24:57.545Z,13.81
2022-10-21T08:27:23.901Z,13.91
2022-10-21T08:29:50.308Z,14.06
2022-10-21T08:32:16.688Z,14.17
2022-10-21T08:34:44.884Z,14.27
2022-10-21T08:37:11.284Z,14.38
2022-10-21T08:39:37.666Z,14.43
2022-10-21T08:42:16.852Z,14.54
2022-10-21T08:44:49.852Z,14.57
2022-10-21T08:47:45.124Z,14.66
2022-10-21T08:50:22.424Z,14.69
2022-10-21T08:52:51.961Z,14.72
2022-10-21T08:55:21.592Z,14.73
2022-10-21T08:57:48.243Z,14.75
2022-10-21T09:00:25.271Z,14.78
2022-10-21T09:03:10.468Z,14.85
2022-10-21T09:06:01.662Z,14.84
2022-10-21T09:08:37.026Z,14.93
2022-10-21T09:11:20.132Z,14.98
2022-10-21T09:13:59.954Z,15.03
2022-10-21T09:16:26.301Z,15.20
2022-10-21T09:18:52.729Z,15.34
2022-10-21T09:21:27.948Z,15.48
2022-10-21T09:23:57.468Z,15.51
2022-10-21T09:26:43.527Z,15.54
2022-10-21T09:29:37.771Z,15.58
2022-10-21T09:32:20.389Z,15.73
2022-10-21T09:34:52.725Z,15.80
2022-10-21T09:37:35.374Z,15.89
2022-10-21T09:40:17.654Z,15.87
2022-10-21T09:42:48.312Z,15.90
2022-10-21T09:45:30.430Z,15.94
2022-10-21T09:48:00.736Z,16.03
2022-10-21T09:50:27.951Z,16.07
2022-10-21T09:53:22.582Z,16.14
2022-10-21T09:55:56.088Z,16.28
2022-10-21T09:58:24.617Z,16.33
2022-10-21T10:00:51.087Z,16.45
2022-10-21T10:03:31.230Z,16.55
2022-10-21T10:05:57.917Z,16.59
2022-10-21T10:08:36.238Z,16.72
2022-10-21T10:11:08.898Z,16.78
2022-10-21T10:13:36.452Z,16.90
2022-10-21T10:16:31.873Z,16.86
2022-10-21T10:19:11.890Z,16.93
2022-10-21T10:21:38.275Z,16.89
2022-10-21T10:24:05.319Z,16.86
2022-10-21T10:26:33.919Z,16.81
2022-10-21T10:29:17.253Z,16.81
2022-10-21T10:31:50.602Z,16.78
2022-10-21T10:34:30.717Z,16.76
2022-10-21T10:37:21.609Z,16.73
2022-10-21T10:39:49.546Z,16.74
2022-10-21T10:42:19.962Z,16.75
2022-10-21T10:44:46.348Z,16.73
2022-10-21T10:47:21.052Z,16.71
2022-10-21T10:49:47.428Z,16.65
2022-10-21T10:52:13.905Z,16.65
2022-10-21T10:54:41.086Z,16.62
2022-10-21T10:57:13.415Z,16.64
2022-10-21T10:59:52.929Z,16.60
2022-10-21T11:02:40.953Z,16.59
2022-10-21T11:05:23.345Z,16.58
2022-10-21T11:07:54.269Z,16.57
2022-10-21T11:10:30.912Z,16.50
2022-10-21T11:12:58.099Z,16.45
2022-10-21T11:15:44.715Z,16.44
2022-10-21T11:18:27.875Z,16.43
2022-10-21T11:21:07.407Z,16.37
2022-10-21T11:24:21.481Z,16.35
2022-10-21T11:27:19.139Z,16.30
2022-10-21T11:30:15.928Z,16.25
2022-10-21T11:33:14.497Z,16.16
2022-10-21T11:35:46.921Z,16.14
2022-10-21T11:38:28.123Z,16.13
2022-10-21T11:41:09.871Z,16.12
2022-10-21T11:43:45.371Z,16.10
2022-10-21T11:46:26.856Z,16.09
2022-10-21T11:49:35.175Z,16.11
2022-10-21T11:52:47.929Z,16.06
2022-10-21T11:55:17.090Z,15.96
2022-10-21T11:58:05.035Z,16.00
2022-10-21T12:00:35.992Z,16.00
2022-10-21T12:03:13.139Z,16.00
2022-10-21T12:05:58.871Z,16.01
2022-10-21T12:08:27.763Z,15.98
2022-10-21T12:11:09.543Z,15.96
2022-10-21T12:13:47.995Z,15.95
2022-10-21T12:16:24.647Z,15.93
2022-10-21T12:18:52.445Z,15.94
2022-10-21T12:21:21.253Z,15.94
2022-10-21T12:23:49.864Z,15.92
2022-10-21T12:26:28.749Z,15.92
2022-10-21T12:29:16.380Z,15.92
2022-10-21T12:32:04.302Z,15.92
2022-10-21T12:34:30.672Z,15.91
2022-10-21T12:36:57.125Z,15.89
2022-10-21T12:39:32.578Z,15.92
2022-10-21T12:42:10.994Z,15.94
2022-10-21T12:44:37.504Z,15.97
2022-10-21T12:47:05.554Z,16.00
2022-10-21T12:49:33.563Z,15.97
2022-10-21T12:52:03.157Z,15.98
2022-10-21T12:54:31.594Z,15.98
2022-10-21T12:57:02.333Z,15.93
2022-10-21T12:59:38.966Z,15.96
2022-10-21T13:02:05.337Z,15.94
2022-10-21T13:04:31.687Z,15.89
2022-10-21T13:07:16.440Z,15.87
2022-10-21T13:09:52.197Z,15.84
2022-10-21T13:12:22.887Z,15.84
2022-10-21T13:15:13.775Z,15.82
2022-10-21T13:17:50.284Z,15.80
2022-10-21T13:20:19.649Z,15.76
2022-10-21T13:23:03.266Z,15.75
2022-10-21T13:25:32.899Z,15.69
2022-10-21T13:28:05.415Z,15.66
2022-10-21T13:30:39.077Z,15.57
2022-10-21T13:33:20.758Z,15.46
2022-10-21T13:35:48.080Z,15.37
2022-10-21T13:38:17.498Z,15.32
2022-10-21T13:40:52.214Z,15.27
2022-10-21T13:43:22.039Z,15.23
2022-10-21T13:45:49.690Z,15.22
2022-10-21T13:48:20.675Z,15.16
2022-10-21T13:50:48.417Z,15.08
2022-10-21T13:53:29.522Z,15.07
2022-10-21T13:56:19.636Z,15.04
2022-10-21T13:58:46.107Z,15.00
2022-10-21T14:01:13.562Z,15.00
2022-10-21T14:03:41.939Z,15.00
2022-10-21T14:06:09.595Z,15.00
2022-10-21T14:08:42.240Z,14.99
2022-10-21T14:11:22.254Z,14.93
2022-10-21T14:13:49.369Z,14.93
2022-10-21T14:16:35.872Z,14.91
2022-10-21T14:19:03.481Z,14.86
2022-10-21T14:21:30.129Z,14.86
2022-10-21T14:23:57.506Z,14.83
2022-10-21T14:26:24.175Z,14.78
2022-10-21T14:28:50.857Z,14.77
2022-10-21T14:31:17.253Z,14.73
2022-10-21T14:33:45.362Z,14.69
2022-10-21T14:36:23.368Z,14.68
2022-10-21T14:39:00.465Z,14.67
2022-10-21T14:41:41.269Z,14.64
2022-10-21T14:44:21.886Z,14.64
2022-10-21T14:46:49.956Z,14.62
2022-10-21T14:49:22.564Z,14.59
2022-10-21T14:51:49.492Z,14.60
2022-10-21T14:54:25.949Z,14.58
2022-10-21T14:56:52.517Z,14.55
2022-10-21T14:59:29.237Z,14.55
2022-10-21T15:01:56.003Z,14.53
2022-10-21T15:04:41.986Z,14.50
2022-10-21T15:07:36.803Z,14.48
2022-10-21T15:10:03.171Z,14.48
2022-10-21T15:12:50.317Z,14.49
2022-10-21T15:15:43.040Z,14.50
2022-10-21T15:18:14.163Z,14.50
2022-10-21T15:20:50.587Z,14.49
2022-10-21T15:23:20.130Z,14.48
2022-10-21T15:25:46.884Z,14.47
2022-10-21T15:28:13.268Z,14.48
2022-10-21T15:30:39.724Z,14.46
2022-10-21T15:33:09.755Z,14.47
2022-10-21T15:35:36.145Z,14.46
2022-10-21T15:38:02.519Z,14.45
2022-10-21T15:40:28.914Z,14.47
2022-10-21T15:42:56.644Z,14.47
2022-10-21T15:45:23.670Z,14.48
2022-10-21T15:47:54.006Z,14.47
2022-10-21T15:50:22.507Z,14.45
2022-10-21T15:52:48.912Z,14.45
2022-10-21T15:55:15.536Z,14.43
2022-10-21T15:57:42.359Z,14.43
2022-10-21T16:00:20.029Z,14.45
2022-10-21T16:02:47.333Z,14.42
2022-10-21T16:05:13.962Z,14.41
2022-10-21T16:07:40.974Z,14.41
2022-10-21T16:10:16.407Z,14.41
2022-10-21T16:12:42.770Z,14.35
2022-10-21T16:15:09.658Z,14.30
2022-10-21T16:17:36.015Z,14.24
2022-10-21T16:20:02.598Z,14.22
2022-10-21T16:22:29.170Z,14.24
2022-10-21T16:24:55.552Z,14.28
2022-10-21T16:27:30.994Z,14.29
2022-10-21T16:30:24.629Z,14.30
2022-10-21T16:32:51.409Z,14.29
2022-10-21T16:35:18.880Z,14.29
2022-10-21T16:37:45.452Z,14.30
2022-10-21T16:40:17.946Z,14.30
2022-10-21T16:42:44.330Z,14.28
2022-10-21T16:45:11.126Z,14.29
2022-10-21T16:47:37.556Z,14.25
2022-10-21T16:50:04.642Z,14.24
2022-10-21T16:52:33.419Z,14.26
2022-10-21T16:54:59.796Z,14.24
2022-10-21T16:57:26.171Z,14.25
2022-10-21T16:59:52.601Z,14.23
2022-10-21T17:02:19.791Z,14.24
2022-10-21T17:04:47.106Z,14.22
2022-10-21T17:07:13.708Z,14.21
2022-10-21T17:09:40.098Z,14.19
2022-10-21T17:12:07.508Z,14.18
2022-10-21T17:17:05.224Z,14.11
2022-10-21T17:19:31.694Z,14.10
2022-10-21T17:21:58.112Z,14.06
2022-10-21T17:24:25.728Z,14.06
2022-10-21T17:26:52.160Z,14.11
2022-10-21T17:29:18.554Z,14.11
2022-10-21T17:31:45.028Z,14.12
2022-10-21T17:34:22.937Z,14.13
2022-10-21T17:36:49.335Z,14.12
2022-10-21T17:39:15.727Z,14.11
2022-10-21T17:41:42.134Z,14.11
2022-10-21T17:44:11.295Z,14.13
2022-10-21T17:46:37.739Z,14.14
2022-10-21T17:49:04.303Z,14.12
2022-10-21T17:51:30.740Z,14.15
2022-10-21T17:53:57.230Z,14.15
2022-10-21T17:56:23.635Z,14.15
2022-10-21T17:58:51.180Z,14.14
2022-10-21T18:01:17.660Z,14.10
2022-10-21T18:03:44.836Z,14.06
2022-10-21T18:06:11.546Z,13.98
2022-10-21T18:08:38.092Z,13.91
2022-10-21T18:11:11.609Z,13.83
2022-10-21T18:13:39.181Z,13.73
2022-10-21T18:16:07.598Z,13.61
2022-10-21T18:18:34.093Z,13.70
2022-10-21T18:21:04.623Z,13.61
2022-10-21T18:23:31.122Z,13.60
2022-10-21T18:26:03.660Z,13.51
2022-10-21T18:28:31.090Z,13.44
2022-10-21T18:30:57.458Z,13.52
2022-10-21T18:33:24.027Z,13.57
2022-10-21T18:35:50.771Z,13.64
2022-10-21T18:38:17.202Z,13.54
2022-10-21T18:40:51.349Z,13.51
2022-10-21T18:43:28.778Z,13.42
2022-10-21T18:45:55.228Z,13.31
2022-10-21T18:48:21.633Z,13.20
2022-10-21T18:50:48.007Z,13.12
2022-10-21T18:53:14.414Z,13.07
2022-10-21T18:55:40.783Z,13.00
2022-10-21T18:58:07.164Z,12.89
2022-10-21T19:00:33.531Z,12.87
2022-10-21T19:02:59.899Z,12.84
2022-10-21T19:05:26.457Z,12.78
2022-10-21T19:07:53.319Z,12.75
2022-10-21T19:10:19.759Z,12.77
2022-10-21T19:12:46.114Z,12.72
2022-10-21T19:15:12.760Z,12.65
2022-10-21T19:17:41.030Z,12.64
2022-10-21T19:20:08.233Z,12.59
2022-10-21T19:22:34.612Z,12.51
2022-10-21T19:25:01.073Z,12.53
2022-10-21T19:27:27.451Z,12.47
2022-10-21T19:29:53.892Z,12.38
2022-10-21T19:32:20.360Z,12.31
2022-10-21T19:34:46.745Z,12.28
2022-10-21T19:37:13.260Z,12.25
2022-10-21T19:39:39.800Z,12.17
2022-10-21T19:42:06.205Z,12.14
2022-10-21T19:44:32.652Z,12.14
2022-10-21T19:46:59.069Z,12.13
2022-10-21T19:49:25.460Z,12.13
2022-10-21T19:51:51.852Z,12.10
2022-10-21T19:54:18.232Z,12.08
2022-10-21T19:56:44.691Z,12.12
2022-10-21T19:59:11.216Z,12.13
2022-10-21T20:01:37.800Z,12.15
2022-10-21T20:04:05.379Z,12.14
2022-10-21T20:06:33.267Z,12.07
2022-10-21T20:09:11.930Z,12.03
2022-10-21T20:11:38.578Z,11.93
2022-10-21T20:14:05.009Z,11.96
2022-10-21T20:16:37.098Z,11.95
2022-10-21T20:19:04.596Z,11.88
2022-10-21T20:21:31.538Z,11.87
2022-10-21T20:23:58.453Z,11.86
2022-10-21T20:26:24.881Z,11.86
2022-10-21T20:28:51.589Z,11.84
2022-10-21T20:31:18.239Z,11.80
2022-10-21T20:33:46.725Z,11.74
2022-10-21T20:36:17.125Z,11.70
2022-10-21T20:38:43.799Z,11.68
2022-10-21T20:41:15.229Z,11.66
2022-10-21T20:43:41.747Z,11.67
2022-10-21T20:46:09.443Z,11.68
2022-10-21T20:48:36.114Z,11.67
2022-10-21T20:51:10.799Z,11.65
2022-10-21T20:53:39.901Z,11.60
2022-10-21T20:56:07.023Z,11.62
2022-10-21T20:58:34.924Z,11.61
2022-10-21T21:01:17.847Z,11.62
2022-10-21T21:03:44.446Z,11.58
2022-10-21T21:06:11.482Z,11.57
2022-10-21T21:08:41.501Z,11.53
2022-10-21T21:11:15.721Z,11.50
2022-10-21T21:13:44.243Z,11.44
2022-10-21T21:16:18.078Z,11.39
2022-10-21T21:18:45.178Z,11.38
2022-10-21T21:21:13.322Z,11.37
2022-10-21T21:23:40.225Z,11.37
2022-10-21T21:26:14.454Z,11.35
2022-10-21T21:28:41.036Z,11.32
2022-10-21T21:31:08.153Z,11.34
2022-10-21T21:33:34.781Z,11.30
2022-10-21T21:36:01.272Z,11.27
2022-10-21T21:38:27.847Z,11.22
2022-10-21T21:40:54.386Z,11.22
2022-10-21T21:43:21.924Z,11.18
2022-10-21T21:45:48.730Z,11.23
2022-10-21T21:50:42.865Z,11.23
2022-10-21T21:53:10.472Z,11.27
2022-10-21T21:55:36.983Z,11.30
2022-10-21T21:58:03.522Z,11.32
2022-10-21T22:00:30.076Z,11.42
2022-10-21T22:02:56.460Z,11.43
2022-10-21T22:05:26.221Z,11.39
2022-10-21T22:07:53.387Z,11.38
2022-10-21T22:10:19.749Z,11.45
2022-10-21T22:12:46.229Z,11.47
2022-10-21T22:15:19.821Z,11.49
2022-10-21T22:17:59.533Z,11.50
2022-10-21T22:20:25.947Z,11.52
2022-10-21T22:22:52.345Z,11.56
2022-10-21T22:25:18.727Z,11.59
2022-10-21T22:27:45.183Z,11.65
2022-10-21T22:30:13.558Z,11.67
2022-10-21T22:32:39.978Z,11.79
2022-10-21T22:35:07.486Z,11.80
2022-10-21T22:37:33.881Z,11.79
2022-10-21T22:40:00.222Z,11.80
2022-10-21T22:42:26.628Z,11.78
2022-10-21T22:44:52.998Z,11.75
2022-10-21T22:47:23.252Z,11.72
2022-10-21T22:49:53.251Z,11.69
2022-10-21T22:52:19.652Z,11.63
2022-10-21T22:54:49.980Z,11.59
2022-10-21T22:57:17.104Z,11.56
2022-10-21T22:59:44.289Z,11.55
2022-10-21T23:02:11.598Z,11.54
2022-10-21T23:04:37.990Z,11.53
2022-10-21T23:07:04.375Z,11.52
2022-10-21T23:09:30.772Z,11.55
2022-10-21T23:11:57.362Z,11.60
2022-10-21T23:14:23.745Z,11.60
2022-10-21T23:16:50.176Z,11.52
2022-10-21T23:19:16.589Z,11.51
2022-10-21T23:21:42.967Z,11.53
2022-10-21T23:24:09.475Z,11.48
2022-10-21T23:26:35.936Z,11.43
2022-10-21T23:29:02.358Z,11.44
2022-10-21T23:31:28.749Z,11.44
2022-10-21T23:33:55.127Z,11.42
2022-10-21T23:36:21.550Z,11.42
2022-10-21T23:38:47.955Z,11.39
2022-10-21T23:41:14.342Z,11.40
2022-10-21T23:43:40.893Z,11.37
2022-10-21T23:46:07.357Z,11.35
2022-10-21T23:48:33.726Z,11.28
2022-10-21T23:51:00.105Z,11.27
2022-10-21T23:53:26.467Z,11.27
2022-10-21T23:55:52.851Z,11.27
2022-10-21T23:58:19.275Z,11.25
